createdAt,value
2023-01-09T00:01:00.428Z,13.77
2023-01-09T00:03:27.418Z,12.18
2023-01-09T00:05:54.178Z,12.93
2023-01-09T00:08:20.948Z,12.95
2023-01-09T00:10:47.535Z,13.43
2023-01-09T00:13:14.513Z,12.35
2023-01-09T00:15:40.879Z,13.00
2023-01-09T00:18:07.362Z,12.65
2023-01-09T00:20:33.913Z,12.55
2023-01-09T00:23:00.533Z,12.70
2023-01-09T00:25:27.132Z,11.98
2023-01-09T00:27:53.900Z,12.93
2023-01-09T00:30:20.352Z,12.15
2023-01-09T00:32:46.724Z,12.23
2023-01-09T00:35:13.280Z,12.15
2023-01-09T00:37:39.715Z,12.43
2023-01-09T00:40:06.352Z,12.80
2023-01-09T00:42:33.010Z,12.40
2023-01-09T00:44:59.557Z,11.90
2023-01-09T00:47:26.301Z,12.07
2023-01-09T00:49:53.136Z,11.52
2023-01-09T00:52:20.073Z,12.63
2023-01-09T00:54:46.838Z,12.57
2023-01-09T00:57:13.343Z,12.50
2023-01-09T00:59:40.515Z,11.52
2023-01-09T01:02:07.084Z,12.13
2023-01-09T01:04:33.669Z,12.23
2023-01-09T01:07:00.427Z,11.68
2023-01-09T01:09:26.996Z,10.98
2023-01-09T01:11:53.399Z,11.60
2023-01-09T01:14:20.205Z,11.70
2023-01-09T01:16:46.614Z,11.38
2023-01-09T01:19:13.311Z,12.13
2023-01-09T01:21:39.885Z,11.68
2023-01-09T01:24:06.481Z,11.45
2023-01-09T01:26:32.992Z,11.95
2023-01-09T01:28:59.716Z,11.80
2023-01-09T01:31:26.290Z,11.15
2023-01-09T01:33:52.758Z,11.75
2023-01-09T01:36:19.484Z,10.95
2023-01-09T01:38:45.921Z,11.30
2023-01-09T01:41:12.545Z,11.02
2023-01-09T01:43:39.011Z,10.88
2023-01-09T01:46:05.845Z,11.27
2023-01-09T01:48:32.399Z,11.45
2023-01-09T01:50:58.949Z,11.93
2023-01-09T01:53:25.911Z,11.35
2023-01-09T01:55:52.230Z,11.18
2023-01-09T01:58:18.982Z,11.95
2023-01-09T02:00:45.624Z,11.38
2023-01-09T02:03:12.603Z,11.82
2023-01-09T02:05:39.926Z,11.30
2023-01-09T02:08:08.033Z,11.77
2023-01-09T02:10:34.621Z,11.80
2023-01-09T02:13:01.135Z,11.48
2023-01-09T02:15:27.583Z,11.38
2023-01-09T02:17:55.535Z,11.52
2023-01-09T02:20:21.943Z,11.70
2023-01-09T02:22:49.712Z,11.40
2023-01-09T02:25:16.948Z,10.85
2023-01-09T02:27:43.868Z,11.07
2023-01-09T02:30:10.301Z,11.13
2023-01-09T02:32:37.315Z,11.27
2023-01-09T02:35:04.170Z,11.57
2023-01-09T02:37:30.643Z,11.07
2023-01-09T02:39:57.575Z,11.18
2023-01-09T02:42:24.044Z,10.68
2023-01-09T02:44:50.331Z,11.85
2023-01-09T02:47:17.034Z,11.38
2023-01-09T02:49:43.480Z,10.90
2023-01-09T02:52:10.139Z,12.00
2023-01-09T02:54:36.896Z,11.35
2023-01-09T02:57:03.393Z,11.00
2023-01-09T02:59:29.849Z,10.30
2023-01-09T03:01:56.877Z,11.55
2023-01-09T03:04:23.504Z,11.77
2023-01-09T03:06:49.971Z,11.52
2023-01-09T03:09:16.432Z,10.82
2023-01-09T03:11:42.867Z,10.50
2023-01-09T03:14:09.680Z,12.23
2023-01-09T03:16:36.189Z,11.05
2023-01-09T03:19:03.101Z,11.40
2023-01-09T03:21:29.674Z,10.45
2023-01-09T03:23:56.024Z,11.18
2023-01-09T03:26:22.929Z,10.98
2023-01-09T03:28:49.484Z,10.65
2023-01-09T03:31:15.984Z,11.40
2023-01-09T03:33:42.434Z,11.10
2023-01-09T03:36:08.896Z,11.35
2023-01-09T03:38:35.675Z,11.30
2023-01-09T03:41:02.457Z,11.40
2023-01-09T03:43:29.176Z,11.38
2023-01-09T03:45:55.688Z,10.40
2023-01-09T03:48:22.425Z,11.23
2023-01-09T03:50:48.968Z,11.07
2023-01-09T03:53:15.347Z,11.30
2023-01-09T03:55:41.717Z,10.55
2023-01-09T03:58:08.142Z,10.95
2023-01-09T04:00:34.752Z,10.35
2023-01-09T04:03:01.367Z,11.30
2023-01-09T04:05:27.814Z,11.38
2023-01-09T04:07:54.301Z,10.98
2023-01-09T04:10:20.749Z,10.40
2023-01-09T04:12:47.903Z,10.63
2023-01-09T04:15:14.572Z,11.07
2023-01-09T04:17:41.142Z,10.88
2023-01-09T04:20:07.667Z,10.73
2023-01-09T04:22:34.740Z,10.90
2023-01-09T04:25:01.436Z,11.13
2023-01-09T04:27:28.192Z,10.23
2023-01-09T04:29:54.763Z,10.80
2023-01-09T04:32:21.092Z,11.02
2023-01-09T04:34:48.099Z,10.07
2023-01-09T04:37:14.554Z,10.95
2023-01-09T04:39:40.920Z,10.27
2023-01-09T04:42:07.276Z,10.27
2023-01-09T04:44:33.615Z,10.15
2023-01-09T04:47:00.174Z,10.77
2023-01-09T04:49:27.066Z,10.77
2023-01-09T04:51:53.502Z,11.05
2023-01-09T04:54:20.186Z,10.85
2023-01-09T04:56:47.001Z,9.68
2023-01-09T04:59:13.408Z,10.73
2023-01-09T05:01:40.015Z,10.57
2023-01-09T05:04:06.545Z,10.93
2023-01-09T05:06:33.140Z,9.18
2023-01-09T05:08:59.651Z,10.15
2023-01-09T05:11:26.147Z,10.27
2023-01-09T05:13:52.535Z,10.25
2023-01-09T05:16:18.982Z,11.05
2023-01-09T05:18:45.602Z,9.73
2023-01-09T05:21:12.232Z,10.60
2023-01-09T05:23:38.713Z,10.82
2023-01-09T05:26:05.258Z,9.23
2023-01-09T05:28:31.757Z,10.63
2023-01-09T05:30:58.380Z,10.00
2023-01-09T05:33:25.083Z,9.93
2023-01-09T05:35:52.009Z,9.43
2023-01-09T05:38:19.058Z,10.95
2023-01-09T05:40:45.728Z,10.43
2023-01-09T05:43:12.112Z,10.60
2023-01-09T05:45:38.982Z,9.88
2023-01-09T05:48:05.514Z,9.18
2023-01-09T05:50:31.903Z,11.05
2023-01-09T05:52:58.365Z,9.75
2023-01-09T05:55:25.274Z,10.35
2023-01-09T05:57:51.971Z,10.52
2023-01-09T06:00:18.355Z,9.68
2023-01-09T06:02:45.216Z,10.18
2023-01-09T06:05:11.751Z,10.10
2023-01-09T06:07:38.336Z,9.35
2023-01-09T06:10:04.821Z,10.15
2023-01-09T06:12:31.482Z,9.82
2023-01-09T06:14:57.969Z,9.73
2023-01-09T06:17:24.540Z,9.00
2023-01-09T06:19:51.315Z,10.57
2023-01-09T06:22:18.149Z,9.82
2023-01-09T06:24:44.639Z,9.80
2023-01-09T06:27:11.346Z,10.65
2023-01-09T06:29:37.815Z,9.98
2023-01-09T06:32:04.537Z,9.77
2023-01-09T06:34:31.753Z,9.88
2023-01-09T06:36:58.682Z,9.88
2023-01-09T06:39:25.227Z,10.20
2023-01-09T06:41:51.585Z,9.73
2023-01-09T06:44:18.190Z,9.50
2023-01-09T06:46:45.121Z,9.98
2023-01-09T06:49:12.275Z,10.07
2023-01-09T06:51:38.969Z,9.57
2023-01-09T06:54:05.571Z,10.38
2023-01-09T06:56:32.018Z,9.63
2023-01-09T06:58:58.370Z,9.55
2023-01-09T07:01:25.107Z,10.15
2023-01-09T07:03:52.074Z,10.55
2023-01-09T07:06:18.721Z,9.25
2023-01-09T07:08:47.760Z,10.38
2023-01-09T07:11:15.403Z,9.93
2023-01-09T07:13:41.878Z,9.88
2023-01-09T07:16:08.372Z,9.73
2023-01-09T07:18:35.041Z,10.45
2023-01-09T07:21:01.482Z,10.95
2023-01-09T07:23:28.171Z,10.82
2023-01-09T07:25:54.631Z,11.23
2023-01-09T07:28:21.593Z,11.35
2023-01-09T07:30:48.020Z,11.90
2023-01-09T07:33:14.716Z,11.80
2023-01-09T07:35:41.293Z,11.65
2023-01-09T07:38:08.227Z,12.23
2023-01-09T07:40:35.175Z,12.50
2023-01-09T07:43:01.735Z,12.77
2023-01-09T07:45:28.418Z,12.93
2023-01-09T07:47:55.320Z,13.45
2023-01-09T07:50:22.082Z,13.00
2023-01-09T07:52:48.540Z,14.00
2023-01-09T07:55:17.359Z,13.18
2023-01-09T07:57:44.054Z,13.63
2023-01-09T08:00:10.500Z,14.10
2023-01-09T08:02:37.040Z,13.88
2023-01-09T08:05:03.545Z,13.65
2023-01-09T08:07:30.220Z,13.88
2023-01-09T08:09:57.053Z,14.23
2023-01-09T08:12:23.713Z,12.95
2023-01-09T08:14:50.323Z,13.60
2023-01-09T08:17:16.915Z,13.65
2023-01-09T08:19:43.464Z,13.95
2023-01-09T08:22:10.339Z,13.60
2023-01-09T08:24:36.758Z,13.52
2023-01-09T08:27:03.542Z,13.30
2023-01-09T08:29:30.069Z,14.32
2023-01-09T08:31:56.882Z,14.98
2023-01-09T08:34:23.840Z,14.57
2023-01-09T08:49:02.080Z,15.40
2023-01-09T08:51:28.792Z,14.52
2023-01-09T08:53:55.291Z,14.48
2023-01-09T08:56:21.544Z,15.82
2023-01-09T08:58:47.829Z,14.60
2023-01-09T09:01:14.667Z,14.75
2023-01-09T09:03:41.193Z,15.02
2023-01-09T09:06:07.578Z,14.90
2023-01-09T09:08:34.008Z,15.25
2023-01-09T09:11:00.372Z,13.68
2023-01-09T09:13:26.967Z,14.35
2023-01-09T09:15:53.298Z,15.65
2023-01-09T09:24:01.538Z,15.10
2023-01-09T09:26:28.174Z,14.73
2023-01-09T09:28:55.070Z,14.88
2023-01-09T09:31:22.092Z,14.55
2023-01-09T09:33:50.702Z,14.68
2023-01-09T09:36:20.049Z,14.18
2023-01-09T09:41:24.770Z,15.18
2023-01-09T09:43:51.595Z,14.60
2023-01-09T09:46:20.456Z,13.60
2023-01-09T09:48:47.090Z,14.52
2023-01-09T09:51:13.640Z,15.18
2023-01-09T09:53:40.208Z,15.00
2023-01-09T09:56:07.172Z,14.48
2023-01-09T09:58:33.507Z,15.85
2023-01-09T10:01:00.022Z,13.38
2023-01-09T10:03:33.977Z,13.95
2023-01-09T10:06:01.131Z,13.63
2023-01-09T10:08:28.022Z,13.82
2023-01-09T10:10:54.385Z,13.40
2023-01-09T10:13:21.086Z,14.10
2023-01-09T10:15:47.654Z,14.43
2023-01-09T10:18:14.169Z,14.32
2023-01-09T10:20:41.140Z,14.23
2023-01-09T10:23:07.823Z,14.38
2023-01-09T10:25:34.413Z,13.55
2023-01-09T10:28:01.508Z,13.73
2023-01-09T10:30:28.300Z,13.10
2023-01-09T10:32:54.707Z,14.13
2023-01-09T10:35:21.104Z,13.77
2023-01-09T10:37:47.841Z,12.82
2023-01-09T10:40:14.305Z,13.73
2023-01-09T10:42:41.118Z,14.13
2023-01-09T10:45:07.614Z,12.88
2023-01-09T10:47:34.248Z,14.05
2023-01-09T10:50:01.166Z,13.73
2023-01-09T10:52:27.527Z,13.80
2023-01-09T10:54:54.013Z,12.95
2023-01-09T10:57:20.406Z,13.57
2023-01-09T10:59:47.581Z,13.40
2023-01-09T11:02:14.145Z,14.05
2023-01-09T11:04:41.202Z,13.40
2023-01-09T11:07:08.031Z,13.25
2023-01-09T11:09:34.958Z,14.07
2023-01-09T11:12:01.401Z,13.30
2023-01-09T11:14:28.227Z,14.40
2023-01-09T11:16:55.117Z,14.30
2023-01-09T11:19:21.672Z,14.60
2023-01-09T11:21:47.933Z,15.05
2023-01-09T11:24:14.611Z,15.10
2023-01-09T11:26:41.315Z,14.70
2023-01-09T11:29:08.235Z,15.95
2023-01-09T11:31:34.910Z,14.75
2023-01-09T11:34:01.494Z,15.80
2023-01-09T11:36:28.053Z,16.05
2023-01-09T11:38:55.307Z,16.10
2023-01-09T11:41:22.085Z,16.08
2023-01-09T11:43:49.268Z,15.88
2023-01-09T11:46:15.757Z,16.15
2023-01-09T11:48:42.233Z,15.65
2023-01-09T11:51:08.725Z,16.40
2023-01-09T11:53:35.488Z,15.90
2023-01-09T11:56:02.043Z,15.57
2023-01-09T11:58:28.467Z,16.50
2023-01-09T12:00:55.601Z,16.02
2023-01-09T12:03:22.232Z,16.52
2023-01-09T12:05:48.852Z,16.77
2023-01-09T12:08:15.500Z,17.17
2023-01-09T12:10:42.343Z,16.85
2023-01-09T12:13:09.117Z,17.08
2023-01-09T12:15:35.683Z,17.58
2023-01-09T12:18:02.282Z,17.17
2023-01-09T12:20:28.877Z,17.77
2023-01-09T12:22:56.045Z,16.63
2023-01-09T12:25:22.895Z,16.40
2023-01-09T12:27:49.435Z,16.98
2023-01-09T12:30:16.350Z,17.92
2023-01-09T12:32:43.104Z,16.90
2023-01-09T12:35:09.958Z,17.20
2023-01-09T12:37:39.766Z,15.73
2023-01-09T12:40:06.753Z,17.65
2023-01-09T12:42:34.050Z,17.45
2023-01-09T12:45:01.478Z,17.40
2023-01-09T12:47:28.632Z,16.30
2023-01-09T12:49:56.582Z,17.25
2023-01-09T12:52:23.383Z,16.70
2023-01-09T12:55:00.762Z,17.80
2023-01-09T12:57:29.683Z,17.15
2023-01-09T13:00:03.738Z,16.25
2023-01-09T13:02:31.787Z,17.20
2023-01-09T13:04:58.540Z,16.60
2023-01-09T13:07:25.221Z,15.98
2023-01-09T13:09:51.712Z,16.13
2023-01-09T13:12:18.307Z,16.75
2023-01-09T13:14:45.244Z,17.38
2023-01-09T13:17:11.925Z,17.15
2023-01-09T13:19:38.548Z,17.13
2023-01-09T13:22:05.357Z,16.70
2023-01-09T13:24:31.967Z,15.20
2023-01-09T13:38:41.279Z,17.73
2023-01-09T13:41:07.984Z,17.63
2023-01-09T13:43:34.735Z,18.77
2023-01-09T13:46:01.423Z,18.95
2023-01-09T13:48:28.029Z,18.10
2023-01-09T13:50:54.297Z,19.33
2023-01-09T13:53:20.901Z,19.08
2023-01-09T13:55:47.348Z,19.42
2023-01-09T13:58:13.618Z,19.67
2023-01-09T14:00:40.026Z,18.58
2023-01-09T14:03:06.294Z,19.90
2023-01-09T14:05:33.466Z,19.35
2023-01-09T14:08:00.047Z,19.88
2023-01-09T14:10:26.428Z,21.02
2023-01-09T14:12:53.538Z,20.58
2023-01-09T14:15:20.387Z,20.52
2023-01-09T14:17:47.135Z,20.15
2023-01-09T14:20:14.412Z,20.73
2023-01-09T14:22:50.383Z,20.25
2023-01-09T14:27:54.678Z,19.50
2023-01-09T14:30:21.569Z,19.35
2023-01-09T14:32:48.625Z,20.55
2023-01-09T14:35:15.559Z,19.40
2023-01-09T14:37:42.079Z,19.55
2023-01-09T14:40:08.837Z,19.15
2023-01-09T14:42:35.861Z,18.40
2023-01-09T14:45:03.029Z,18.20
2023-01-09T14:47:29.743Z,18.05
2023-01-09T14:49:56.420Z,17.52
2023-01-09T14:52:23.075Z,17.48
2023-01-09T14:54:49.522Z,18.85
2023-01-09T14:57:16.284Z,19.00
2023-01-09T14:59:42.711Z,16.88
2023-01-09T15:02:09.462Z,18.05
2023-01-09T15:04:36.328Z,17.38
2023-01-09T15:07:03.228Z,17.27
2023-01-09T15:09:29.509Z,16.73
2023-01-09T15:11:56.439Z,17.10
2023-01-09T15:14:23.264Z,16.80
2023-01-09T15:16:49.712Z,17.00
2023-01-09T15:19:16.296Z,17.35
2023-01-09T15:21:43.132Z,16.45
2023-01-09T15:24:09.785Z,17.13
2023-01-09T15:26:37.051Z,16.90
2023-01-09T15:29:03.609Z,16.63
2023-01-09T15:31:30.245Z,15.05
2023-01-09T15:33:57.639Z,16.33
2023-01-09T15:36:24.566Z,16.42
2023-01-09T15:38:51.012Z,15.65
2023-01-09T15:41:18.157Z,15.85
2023-01-09T15:43:44.750Z,16.33
2023-01-09T15:46:11.463Z,14.63
2023-01-09T15:48:38.189Z,15.10
2023-01-09T15:51:05.200Z,15.20
2023-01-09T15:53:31.844Z,13.70
2023-01-09T15:55:58.585Z,14.98
2023-01-09T15:58:25.728Z,15.02
2023-01-09T16:00:52.443Z,14.93
2023-01-09T16:03:19.041Z,14.73
2023-01-09T16:05:45.690Z,15.20
2023-01-09T16:08:12.526Z,14.73
2023-01-09T16:10:39.123Z,14.63
2023-01-09T16:13:05.945Z,14.95
2023-01-09T16:15:32.830Z,14.13
2023-01-09T16:17:59.906Z,13.95
2023-01-09T16:20:26.600Z,12.55
2023-01-09T16:22:53.441Z,13.63
2023-01-09T16:25:19.998Z,13.05
2023-01-09T16:27:46.617Z,13.02
2023-01-09T16:30:13.162Z,13.32
2023-01-09T16:32:39.826Z,13.60
2023-01-09T16:35:06.439Z,12.63
2023-01-09T16:37:33.094Z,13.32
2023-01-09T16:39:59.641Z,12.52
2023-01-09T16:42:26.236Z,12.77
2023-01-09T16:44:52.878Z,12.27
2023-01-09T16:47:19.514Z,12.50
2023-01-09T16:49:45.995Z,12.43
2023-01-09T16:52:12.731Z,12.27
2023-01-09T16:54:39.322Z,12.82
2023-01-09T16:57:05.809Z,12.10
2023-01-09T16:59:32.338Z,13.00
2023-01-09T17:01:59.631Z,11.77
2023-01-09T17:04:26.322Z,12.18
2023-01-09T17:06:52.785Z,12.00
2023-01-09T17:09:19.312Z,11.60
2023-01-09T17:11:46.096Z,11.70
2023-01-09T17:14:12.849Z,11.68
2023-01-09T17:16:39.263Z,11.68
2023-01-09T17:19:05.919Z,11.57
2023-01-09T17:21:32.489Z,11.10
2023-01-09T17:23:58.988Z,10.57
2023-01-09T17:26:25.512Z,11.07
2023-01-09T17:28:52.273Z,11.05
2023-01-09T17:31:18.764Z,10.10
2023-01-09T17:33:45.502Z,10.20
2023-01-09T17:36:13.571Z,11.00
2023-01-09T17:38:40.002Z,10.13
2023-01-09T17:41:06.492Z,10.25
2023-01-09T17:43:33.532Z,11.00
2023-01-09T17:46:00.053Z,9.93
2023-01-09T17:48:27.330Z,10.35
2023-01-09T17:50:53.978Z,10.98
2023-01-09T17:53:20.635Z,10.07
2023-01-09T17:55:47.452Z,10.80
2023-01-09T17:58:14.501Z,9.63
2023-01-09T18:00:41.287Z,9.75
2023-01-09T18:03:07.963Z,10.10
2023-01-09T18:05:34.885Z,10.48
2023-01-09T18:08:01.378Z,9.57
2023-01-09T18:10:27.964Z,9.85
2023-01-09T18:12:54.572Z,9.60
2023-01-09T18:15:21.306Z,9.80
2023-01-09T18:17:48.076Z,8.73
2023-01-09T18:20:14.556Z,9.63
2023-01-09T18:22:41.055Z,9.07
2023-01-09T18:25:08.098Z,9.77
2023-01-09T18:27:34.904Z,8.63
2023-01-09T18:30:03.591Z,8.90
2023-01-09T18:32:31.709Z,9.18
2023-01-09T18:34:58.682Z,8.82
2023-01-09T18:37:25.168Z,8.15
2023-01-09T18:39:51.581Z,8.55
2023-01-09T18:42:18.339Z,8.73
2023-01-09T18:44:45.072Z,8.45
2023-01-09T18:47:11.560Z,8.63
2023-01-09T18:49:37.977Z,8.43
2023-01-09T18:52:07.361Z,8.73
2023-01-09T18:54:34.189Z,8.98
2023-01-09T18:57:00.751Z,8.07
2023-01-09T18:59:27.703Z,8.32
2023-01-09T19:01:54.501Z,7.82
2023-01-09T19:04:21.085Z,8.35
2023-01-09T19:06:47.780Z,8.15
2023-01-09T19:09:14.229Z,7.53
2023-01-09T19:11:40.844Z,7.68
2023-01-09T19:14:07.447Z,7.50
2023-01-09T19:16:34.296Z,8.02
2023-01-09T19:19:00.981Z,7.80
2023-01-09T19:21:28.688Z,7.00
2023-01-09T19:23:55.301Z,7.38
2023-01-09T19:26:21.943Z,6.88
2023-01-09T19:28:48.567Z,7.18
2023-01-09T19:31:15.626Z,6.82
2023-01-09T19:33:42.192Z,7.07
2023-01-09T19:36:08.787Z,7.25
2023-01-09T19:38:35.578Z,7.38
2023-01-09T19:41:02.151Z,7.55
2023-01-09T19:43:28.701Z,6.82
2023-01-09T19:45:55.362Z,6.85
2023-01-09T19:48:21.936Z,6.82
2023-01-09T19:50:48.389Z,6.60
2023-01-09T19:53:14.889Z,6.70
2023-01-09T19:55:41.436Z,6.30
2023-01-09T19:58:08.000Z,5.65
2023-01-09T20:00:34.758Z,6.82
2023-01-09T20:03:01.305Z,6.15
2023-01-09T20:05:28.075Z,5.97
2023-01-09T20:07:54.857Z,6.22
2023-01-09T20:10:21.672Z,5.95
2023-01-09T20:12:48.456Z,5.97
2023-01-09T20:15:15.521Z,6.80
2023-01-09T20:17:42.157Z,6.18
2023-01-09T20:20:08.632Z,5.57
2023-01-09T20:22:35.429Z,5.43
2023-01-09T20:25:01.994Z,5.75
2023-01-09T20:27:28.865Z,5.82
2023-01-09T20:29:55.695Z,5.72
2023-01-09T20:32:22.610Z,6.03
2023-01-09T20:34:49.346Z,5.38
2023-01-09T20:37:15.888Z,5.80
2023-01-09T20:39:42.499Z,5.60
2023-01-09T20:42:09.277Z,5.78
2023-01-09T20:44:36.045Z,5.60
2023-01-09T20:47:02.565Z,5.90
2023-01-09T20:49:29.469Z,5.50
2023-01-09T20:51:56.565Z,4.53
2023-01-09T20:54:23.503Z,5.20
2023-01-09T20:56:50.029Z,5.35
2023-01-09T20:59:16.559Z,4.78
2023-01-09T21:01:43.018Z,5.53
2023-01-09T21:04:09.684Z,5.00
2023-01-09T21:06:36.169Z,5.35
2023-01-09T21:09:02.769Z,5.22
2023-01-09T21:11:29.460Z,4.70
2023-01-09T21:13:56.117Z,5.00
2023-01-09T21:16:22.686Z,5.05
2023-01-09T21:18:49.429Z,4.38
2023-01-09T21:21:15.871Z,5.15
2023-01-09T21:23:42.463Z,5.18
2023-01-09T21:26:09.051Z,4.65
2023-01-09T21:28:35.599Z,4.50
2023-01-09T21:31:02.213Z,4.95
2023-01-09T21:33:29.244Z,4.32
2023-01-09T21:35:55.804Z,4.30
2023-01-09T21:38:22.391Z,4.45
2023-01-09T21:40:48.881Z,4.60
2023-01-09T21:43:15.622Z,3.88
2023-01-09T21:45:42.255Z,4.45
2023-01-09T21:48:08.976Z,4.38
2023-01-09T21:50:35.844Z,4.22
2023-01-09T21:53:02.393Z,4.07
2023-01-09T21:55:29.084Z,4.60
2023-01-09T21:57:55.975Z,3.80
2023-01-09T22:00:22.689Z,4.35
2023-01-09T22:02:49.091Z,4.32
2023-01-09T22:05:15.614Z,4.13
2023-01-09T22:07:42.124Z,4.45
2023-01-09T22:10:08.596Z,3.83
2023-01-09T22:12:35.088Z,4.03
2023-01-09T22:15:01.662Z,4.45
2023-01-09T22:17:28.199Z,3.70
2023-01-09T22:19:54.710Z,3.42
2023-01-09T22:22:21.294Z,3.70
2023-01-09T22:24:47.919Z,3.80
2023-01-09T22:27:14.579Z,3.70
2023-01-09T22:29:41.666Z,3.63
2023-01-09T22:32:08.141Z,3.70
2023-01-09T22:34:35.881Z,3.83
2023-01-09T22:37:02.553Z,3.90
2023-01-09T22:39:29.587Z,4.18
2023-01-09T22:41:56.566Z,3.97
2023-01-09T22:44:23.602Z,4.10
2023-01-09T22:46:50.352Z,3.30
2023-01-09T22:49:17.068Z,3.53
2023-01-09T22:51:44.004Z,3.40
2023-01-09T22:54:10.780Z,3.90
2023-01-09T22:56:37.201Z,3.40
2023-01-09T22:59:03.639Z,3.58
2023-01-09T23:01:30.157Z,3.58
2023-01-09T23:03:57.102Z,3.40
2023-01-09T23:06:23.719Z,3.40
2023-01-09T23:08:50.527Z,3.47
2023-01-09T23:11:17.541Z,3.90
2023-01-09T23:13:44.243Z,3.40
2023-01-09T23:16:11.476Z,3.35
2023-01-09T23:18:38.592Z,3.17
2023-01-09T23:21:06.010Z,2.92
2023-01-09T23:23:33.103Z,3.53
2023-01-09T23:25:59.506Z,3.40
2023-01-09T23:28:26.396Z,3.30
2023-01-09T23:30:53.308Z,3.05
2023-01-09T23:33:20.074Z,3.40
2023-01-09T23:35:46.576Z,3.20
2023-01-09T23:38:13.038Z,3.47
2023-01-09T23:40:39.687Z,3.40
2023-01-09T23:43:06.140Z,3.03
2023-01-09T23:45:32.667Z,2.65
2023-01-09T23:47:59.334Z,2.63
2023-01-09T23:50:25.984Z,3.08
2023-01-09T23:52:52.907Z,3.10
2023-01-09T23:55:19.494Z,2.97
2023-01-09T23:57:46.522Z,2.80
